Terminal Aerodrome Forecast
Issued by NWS Wilmington, OH

Current Version | Previous Version | Graphics & Text | Print | Product List | Glossary On
Versions: 1 2 3 4 5 6 7 8 9 10 11 12 13 14 15 16 17 18 19 20 21 22 23 24 25 26
000
FTUS41 KILN 022300
TAFILN
TAF
KILN 022338Z 0300/0324 VRB04KT P6SM BKN200
     FM030600 11006KT P6SM OVC120
     FM031100 13006KT P6SM OVC050
     FM031300 15009KT 5SM -FZRA BR OVC015
     FM031800 17012KT 3SM -RA BR OVC008
     FM032000 20012KT 2SM -RA BR OVC006=

USA.gov is the U.S. government's official web portal to all federal, state and local government web resources and services.